Flight Track Log - Related Links

Times and Time Zones

All times are in EDT time to prevent confusion due to time zone crossing. See the N770PJ flight status page for this flight to view local times or setup timezone preferences in your user account.

Time Position Orientation Groundspeed Altitude Reporting Facility
EDT Latitude Longitude Course Direction KTS MPH feet Rate Location/Type
Sun 09:22:34 PM 29.5503 -98.4439 44° Northeast 171 197 1,700  Level Houston Center
Sun 09:22:55 PM 29.5631 -98.4297 44° Northeast 186 214 2,300 2,361 Climbing Houston Center
Sun 09:23:35 PM 29.5850 -98.3892 58° Northeast 225 259 4,100 2,557 Climbing Houston Center
Sun 09:23:56 PM 29.5811 -98.3681 102° East 224 258 4,900 2,600 Climbing Houston Center
Sun 09:24:35 PM 29.5508 -98.3356 137° Southeast 240 276 6,700 2,459 Climbing Houston Center
Sun 09:24:57 PM 29.5294 -98.3361 181° South 241 277 7,400 2,459 Climbing Houston Center
Sun 09:25:36 PM 29.4864 -98.3675 212° Southwest 266 306 9,200 2,557 Climbing Houston Center
Sun 09:25:58 PM 29.4633 -98.3858 215° Southwest 263 303 10,000 2,024 Climbing Houston Center
Sun 09:26:59 PM 29.3972 -98.4383 215° Southwest 285 328 12,000 2,410 Climbing Houston Center
Sun 09:28:00 PM 29.3269 -98.4944 215° Southwest 304 350 14,900 2,607 Climbing Houston Center
Sun 09:29:01 PM 29.2606 -98.5444 213° Southwest 287 330 17,300 1,721 Climbing Houston Center
Sun 09:30:02 PM 29.1892 -98.5981 213° Southwest 307 353 18,400 1,180 Climbing Houston Center
Sun 09:31:03 PM 29.1031 -98.6453 206° Southwest 340 391 19,700 1,721 Climbing Houston Center
Sun 09:32:04 PM 29.0131 -98.6981 207° Southwest 337 388 21,900 1,426 Climbing Houston Center
Sun 09:33:05 PM 28.9272 -98.7494 208° Southwest 348 400 22,600 942 Climbing Houston Center
Sun 09:34:05 PM 28.8336 -98.8025 206° Southwest 372 428 23,800 1,537 Climbing Houston Center
Sun 09:35:06 PM 28.7442 -98.8544 207° Southwest 361 415 25,700 1,279 Climbing Houston Center
Sun 09:36:07 PM 28.6628 -98.8961 204° Southwest 359 413 26,400 738 Climbing Houston Center
Sun 09:37:08 PM 28.5658 -98.9483 205° Southwest 380 437 27,200 689 Climbing Houston Center
Sun 09:38:09 PM 28.4683 -99.0019 206° Southwest 388 447 27,800 344 Climbing Houston Center
Sun 09:39:10 PM 28.3669 -99.0597 207° Southwest 403 464 27,900 98 Climbing Houston Center
Sun 09:40:11 PM 28.2425 -99.1400 210° Southwest 426 490 28,000 49 Climbing Houston Center
Sun 09:41:12 PM 28.1339 -99.2103 210° Southwest 445 512 28,000 49 Level Houston Center
Sun 09:42:13 PM 28.0222 -99.2736 207° Southwest 450 518 28,100 50 Climbing Houston Center
Sun 09:43:13 PM 27.9058 -99.3300 203° Southwest 456 525 28,100  Level Houston Center
Sun 09:44:14 PM 27.7942 -99.3892 205° Southwest 448 516 28,100 -49 Level Houston Center
Sun 09:45:15 PM 27.6842 -99.4467 205° Southwest 442 509 28,000 -49 Descending Houston Center
Sun 09:46:16 PM 27.5728 -99.5017 204° Southwest 441 507 28,000  Level Houston Center
Sun 09:48:00 PM 27.4289 -99.5605 204° Southwest  Level FlightAware Approximate
Sun 09:55:00 PM 26.8353 -99.7452 197° South  Level FlightAware Approximate
Sun 09:56:00 PM 26.7511 -99.7742 197° South  Level FlightAware Approximate
Sun 09:57:00 PM 26.6669 -99.8030 197° South  Level FlightAware Approximate
Sun 09:58:00 PM 26.5828 -99.8319 197° South  Level FlightAware Approximate
Sun 09:59:00 PM 26.4986 -99.8607 197° South  Level FlightAware Approximate
Sun 10:00:00 PM 26.4144 -99.8894 197° South  Level FlightAware Approximate
Sun 10:01:00 PM 26.3297 -99.9161 195° South  Level FlightAware Approximate
Sun 10:02:00 PM 26.2447 -99.9416 195° South  Level FlightAware Approximate
Sun 10:03:00 PM 26.1601 -99.9689 197° South  Level FlightAware Approximate
Sun 10:04:00 PM 26.0758 -99.9970 197° South  Level FlightAware Approximate
Sun 10:05:00 PM 25.9912 -100.0243 195° South  Level FlightAware Approximate
Sun 10:06:00 PM 25.9062 -100.0498 195° South  Level FlightAware Approximate
Sun 10:07:00 PM 25.8220 -100.0779 200° South  Level FlightAware Approximate
Sun 10:08:00 PM 25.7874 -100.1227 307° West  Level FlightAware Approximate
Sun 10:09:00 PM 25.8355 -100.2044 299° West  Level FlightAware Approximate
Sun 10:10:00 PM 25.8656 -100.2372 318° Northwest  Level Estimated
Sun 10:11:00 PM 25.8656 -100.2372 318° Northwest  Level Estimated
Sun 10:12:00 PM 25.8656 -100.2372 318° Northwest  Level Estimated
Sun 10:13:00 PM 25.8656 -100.2372 318° Northwest  Level Estimated
Sun 10:14:00 PM 25.8656 -100.2372 318° Northwest  Level Estimated
Sun 10:15:00 PM 25.8656 -100.2372 318° Northwest  Level Estimated
Sun 10:16:00 PM 25.8656 -100.2372 318° Northwest  Level Estimated
Sun 10:17:00 PM 25.8656 -100.2372 318° Northwest  Level Estimated
Sun 10:18:00 PM 25.8656 -100.2372 318° Northwest  Level Estimated
Sun 10:19:00 PM 25.8656 -100.2372 318° Northwest  Level Estimated
Sun 10:20:00 PM 25.8656 -100.2372 318° Northwest  Level Estimated
Sun 10:21:00 PM 25.8656 -100.2372 318° Northwest  Level Estimated
Sun 10:22:00 PM 25.8656 -100.2372 318° Northwest  Level Estimated
Sun 10:23:00 PM 25.8656 -100.2372 318° Northwest  Level Estimated
Sun 10:24:00 PM 25.8656 -100.2372 318° Northwest  Level Estimated
Sun 10:25:00 PM 25.8656 -100.2372 318° Northwest  Level Estimated
Sun 10:26:00 PM 25.8656 -100.2372 318° Northwest  Level Estimated

Login

Don't have an account? Register now (free) for customized features, flight alerts, and more!